<?xml version="1.0" encoding="UTF-8" standalone="no" ?>
<gpx version="1.1" creator="Visorando" xmlns:xsi="http://www.w3.org/2001/XMLSchema-instance" xmlns="http://www.topografix.com/GPX/1/1" xsi:schemaLocation="http://www.topografix.com/GPX/1/1 http://www.topografix.com/GPX/1/1/gpx.xsd">
 <metadata>
  <name>Randonnée du 18/01/2021 à 15:52</name>
  <link href="https://www.visorando.com/randonnee-/4620860">
   <text>https://www.visorando.com/randonnee-/4620860</text>
  </link>
 </metadata>
 <trk>
  <name>Randonnée du 18/01/2021 à 15:52</name>
  <trkseg>
   <trkpt lat="47.875123" lon="6.761995">
    <ele>497</ele>
    <time>2021-01-18T15:52:58+01:00</time>
   </trkpt>
   <trkpt lat="47.875238" lon="6.760493">
    <ele>497</ele>
    <time>2021-01-18T15:53:03+01:00</time>
   </trkpt>
   <trkpt lat="47.875584" lon="6.759334">
    <ele>495</ele>
    <time>2021-01-18T15:53:08+01:00</time>
   </trkpt>
   <trkpt lat="47.876044" lon="6.758219">
    <ele>494</ele>
    <time>2021-01-18T15:53:13+01:00</time>
   </trkpt>
   <trkpt lat="47.876706" lon="6.757017">
    <ele>497</ele>
    <time>2021-01-18T15:53:18+01:00</time>
   </trkpt>
   <trkpt lat="47.877196" lon="6.756459">
    <ele>495</ele>
    <time>2021-01-18T15:53:23+01:00</time>
   </trkpt>
   <trkpt lat="47.876994" lon="6.756073">
    <ele>498</ele>
    <time>2021-01-18T15:53:28+01:00</time>
   </trkpt>
   <trkpt lat="47.876649" lon="6.756073">
    <ele>499</ele>
    <time>2021-01-18T15:53:33+01:00</time>
   </trkpt>
   <trkpt lat="47.876332" lon="6.755687">
    <ele>502</ele>
    <time>2021-01-18T15:53:38+01:00</time>
   </trkpt>
   <trkpt lat="47.876246" lon="6.755257">
    <ele>505</ele>
    <time>2021-01-18T15:53:43+01:00</time>
   </trkpt>
   <trkpt lat="47.876102" lon="6.754528">
    <ele>512</ele>
    <time>2021-01-18T15:53:48+01:00</time>
   </trkpt>
   <trkpt lat="47.875382" lon="6.754571">
    <ele>517</ele>
    <time>2021-01-18T15:53:53+01:00</time>
   </trkpt>
   <trkpt lat="47.874922" lon="6.754528">
    <ele>521</ele>
    <time>2021-01-18T15:53:58+01:00</time>
   </trkpt>
   <trkpt lat="47.874547" lon="6.754871">
    <ele>523</ele>
    <time>2021-01-18T15:54:03+01:00</time>
   </trkpt>
   <trkpt lat="47.874231" lon="6.754957">
    <ele>523</ele>
    <time>2021-01-18T15:54:08+01:00</time>
   </trkpt>
   <trkpt lat="47.873943" lon="6.75427">
    <ele>533</ele>
    <time>2021-01-18T15:54:13+01:00</time>
   </trkpt>
   <trkpt lat="47.873597" lon="6.754099">
    <ele>538</ele>
    <time>2021-01-18T15:54:18+01:00</time>
   </trkpt>
   <trkpt lat="47.873396" lon="6.753841">
    <ele>540</ele>
    <time>2021-01-18T15:54:23+01:00</time>
   </trkpt>
   <trkpt lat="47.87331" lon="6.753155">
    <ele>547</ele>
    <time>2021-01-18T15:54:28+01:00</time>
   </trkpt>
   <trkpt lat="47.873281" lon="6.752296">
    <ele>555</ele>
    <time>2021-01-18T15:54:33+01:00</time>
   </trkpt>
   <trkpt lat="47.873338" lon="6.751695">
    <ele>563</ele>
    <time>2021-01-18T15:54:38+01:00</time>
   </trkpt>
   <trkpt lat="47.873396" lon="6.75118">
    <ele>567</ele>
    <time>2021-01-18T15:54:43+01:00</time>
   </trkpt>
   <trkpt lat="47.873166" lon="6.750322">
    <ele>569</ele>
    <time>2021-01-18T15:54:48+01:00</time>
   </trkpt>
   <trkpt lat="47.873166" lon="6.749593">
    <ele>574</ele>
    <time>2021-01-18T15:54:53+01:00</time>
   </trkpt>
   <trkpt lat="47.872907" lon="6.74912">
    <ele>578</ele>
    <time>2021-01-18T15:54:58+01:00</time>
   </trkpt>
   <trkpt lat="47.872676" lon="6.748262">
    <ele>583</ele>
    <time>2021-01-18T15:55:03+01:00</time>
   </trkpt>
   <trkpt lat="47.872676" lon="6.747876">
    <ele>585</ele>
    <time>2021-01-18T15:55:08+01:00</time>
   </trkpt>
   <trkpt lat="47.872705" lon="6.747061">
    <ele>587</ele>
    <time>2021-01-18T15:55:13+01:00</time>
   </trkpt>
   <trkpt lat="47.872705" lon="6.746631">
    <ele>589</ele>
    <time>2021-01-18T15:55:18+01:00</time>
   </trkpt>
   <trkpt lat="47.872532" lon="6.746031">
    <ele>594</ele>
    <time>2021-01-18T15:55:23+01:00</time>
   </trkpt>
   <trkpt lat="47.872158" lon="6.745687">
    <ele>599</ele>
    <time>2021-01-18T15:55:28+01:00</time>
   </trkpt>
   <trkpt lat="47.871841" lon="6.745215">
    <ele>606</ele>
    <time>2021-01-18T15:55:33+01:00</time>
   </trkpt>
   <trkpt lat="47.871554" lon="6.745001">
    <ele>610</ele>
    <time>2021-01-18T15:55:38+01:00</time>
   </trkpt>
   <trkpt lat="47.871323" lon="6.744829">
    <ele>610</ele>
    <time>2021-01-18T15:55:43+01:00</time>
   </trkpt>
   <trkpt lat="47.871266" lon="6.744271">
    <ele>617</ele>
    <time>2021-01-18T15:55:48+01:00</time>
   </trkpt>
   <trkpt lat="47.871352" lon="6.743799">
    <ele>624</ele>
    <time>2021-01-18T15:55:53+01:00</time>
   </trkpt>
   <trkpt lat="47.871323" lon="6.743069">
    <ele>632</ele>
    <time>2021-01-18T15:55:58+01:00</time>
   </trkpt>
   <trkpt lat="47.871323" lon="6.742469">
    <ele>635</ele>
    <time>2021-01-18T15:56:03+01:00</time>
   </trkpt>
   <trkpt lat="47.871323" lon="6.741567">
    <ele>641</ele>
    <time>2021-01-18T15:56:08+01:00</time>
   </trkpt>
   <trkpt lat="47.871611" lon="6.740967">
    <ele>637</ele>
    <time>2021-01-18T15:56:13+01:00</time>
   </trkpt>
   <trkpt lat="47.871669" lon="6.740366">
    <ele>629</ele>
    <time>2021-01-18T15:56:18+01:00</time>
   </trkpt>
   <trkpt lat="47.871554" lon="6.739851">
    <ele>627</ele>
    <time>2021-01-18T15:56:23+01:00</time>
   </trkpt>
   <trkpt lat="47.871525" lon="6.739593">
    <ele>624</ele>
    <time>2021-01-18T15:56:28+01:00</time>
   </trkpt>
   <trkpt lat="47.871294" lon="6.739078">
    <ele>627</ele>
    <time>2021-01-18T15:56:33+01:00</time>
   </trkpt>
   <trkpt lat="47.87115" lon="6.738864">
    <ele>629</ele>
    <time>2021-01-18T15:56:38+01:00</time>
   </trkpt>
   <trkpt lat="47.87092" lon="6.736933">
    <ele>630</ele>
    <time>2021-01-18T15:56:43+01:00</time>
   </trkpt>
   <trkpt lat="47.870776" lon="6.736031">
    <ele>634</ele>
    <time>2021-01-18T15:56:48+01:00</time>
   </trkpt>
   <trkpt lat="47.870747" lon="6.735001">
    <ele>640</ele>
    <time>2021-01-18T15:56:53+01:00</time>
   </trkpt>
   <trkpt lat="47.870805" lon="6.734787">
    <ele>643</ele>
    <time>2021-01-18T15:56:58+01:00</time>
   </trkpt>
   <trkpt lat="47.871122" lon="6.734787">
    <ele>647</ele>
    <time>2021-01-18T15:57:03+01:00</time>
   </trkpt>
   <trkpt lat="47.871582" lon="6.734744">
    <ele>647</ele>
    <time>2021-01-18T15:57:08+01:00</time>
   </trkpt>
   <trkpt lat="47.872216" lon="6.734915">
    <ele>650</ele>
    <time>2021-01-18T15:57:13+01:00</time>
   </trkpt>
   <trkpt lat="47.872964" lon="6.734958">
    <ele>654</ele>
    <time>2021-01-18T15:57:18+01:00</time>
   </trkpt>
   <trkpt lat="47.873367" lon="6.734744">
    <ele>652</ele>
    <time>2021-01-18T15:57:23+01:00</time>
   </trkpt>
   <trkpt lat="47.873511" lon="6.734401">
    <ele>651</ele>
    <time>2021-01-18T15:57:28+01:00</time>
   </trkpt>
   <trkpt lat="47.873511" lon="6.733714">
    <ele>658</ele>
    <time>2021-01-18T15:57:33+01:00</time>
   </trkpt>
   <trkpt lat="47.873713" lon="6.732941">
    <ele>669</ele>
    <time>2021-01-18T15:57:38+01:00</time>
   </trkpt>
   <trkpt lat="47.874231" lon="6.732169">
    <ele>671</ele>
    <time>2021-01-18T15:57:43+01:00</time>
   </trkpt>
   <trkpt lat="47.874432" lon="6.731911">
    <ele>671</ele>
    <time>2021-01-18T15:57:48+01:00</time>
   </trkpt>
   <trkpt lat="47.874749" lon="6.731697">
    <ele>670</ele>
    <time>2021-01-18T15:57:53+01:00</time>
   </trkpt>
   <trkpt lat="47.874749" lon="6.731268">
    <ele>677</ele>
    <time>2021-01-18T15:57:58+01:00</time>
   </trkpt>
   <trkpt lat="47.875411" lon="6.730881">
    <ele>678</ele>
    <time>2021-01-18T15:58:03+01:00</time>
   </trkpt>
   <trkpt lat="47.87571" lon="6.730624">
    <ele>684</ele>
    <time>2021-01-18T15:58:08+01:00</time>
   </trkpt>
   <trkpt lat="47.875797" lon="6.730452">
    <ele>687</ele>
    <time>2021-01-18T15:58:13+01:00</time>
   </trkpt>
   <trkpt lat="47.875163" lon="6.730409">
    <ele>694</ele>
    <time>2021-01-18T15:58:18+01:00</time>
   </trkpt>
   <trkpt lat="47.874732" lon="6.730452">
    <ele>696</ele>
    <time>2021-01-18T15:58:23+01:00</time>
   </trkpt>
   <trkpt lat="47.874588" lon="6.730753">
    <ele>693</ele>
    <time>2021-01-18T15:58:28+01:00</time>
   </trkpt>
   <trkpt lat="47.874242" lon="6.731096">
    <ele>695</ele>
    <time>2021-01-18T15:58:33+01:00</time>
   </trkpt>
   <trkpt lat="47.873724" lon="6.731654">
    <ele>702</ele>
    <time>2021-01-18T15:58:38+01:00</time>
   </trkpt>
   <trkpt lat="47.873436" lon="6.73204">
    <ele>704</ele>
    <time>2021-01-18T15:58:43+01:00</time>
   </trkpt>
   <trkpt lat="47.87312" lon="6.732126">
    <ele>713</ele>
    <time>2021-01-18T15:58:48+01:00</time>
   </trkpt>
   <trkpt lat="47.872717" lon="6.732212">
    <ele>718</ele>
    <time>2021-01-18T15:58:53+01:00</time>
   </trkpt>
   <trkpt lat="47.872112" lon="6.732083">
    <ele>726</ele>
    <time>2021-01-18T15:58:58+01:00</time>
   </trkpt>
   <trkpt lat="47.871594" lon="6.731826">
    <ele>735</ele>
    <time>2021-01-18T15:59:03+01:00</time>
   </trkpt>
   <trkpt lat="47.871335" lon="6.731697">
    <ele>740</ele>
    <time>2021-01-18T15:59:08+01:00</time>
   </trkpt>
   <trkpt lat="47.87073" lon="6.731654">
    <ele>746</ele>
    <time>2021-01-18T15:59:13+01:00</time>
   </trkpt>
   <trkpt lat="47.870557" lon="6.731311">
    <ele>752</ele>
    <time>2021-01-18T15:59:18+01:00</time>
   </trkpt>
   <trkpt lat="47.870327" lon="6.730538">
    <ele>757</ele>
    <time>2021-01-18T15:59:23+01:00</time>
   </trkpt>
   <trkpt lat="47.870298" lon="6.730324">
    <ele>758</ele>
    <time>2021-01-18T15:59:28+01:00</time>
   </trkpt>
   <trkpt lat="47.869809" lon="6.729809">
    <ele>759</ele>
    <time>2021-01-18T15:59:33+01:00</time>
   </trkpt>
   <trkpt lat="47.869607" lon="6.72968">
    <ele>757</ele>
    <time>2021-01-18T15:59:38+01:00</time>
   </trkpt>
   <trkpt lat="47.869291" lon="6.729165">
    <ele>757</ele>
    <time>2021-01-18T15:59:43+01:00</time>
   </trkpt>
   <trkpt lat="47.868917" lon="6.728907">
    <ele>756</ele>
    <time>2021-01-18T15:59:48+01:00</time>
   </trkpt>
   <trkpt lat="47.868744" lon="6.729165">
    <ele>759</ele>
    <time>2021-01-18T15:59:53+01:00</time>
   </trkpt>
   <trkpt lat="47.868168" lon="6.72998">
    <ele>759</ele>
    <time>2021-01-18T15:59:58+01:00</time>
   </trkpt>
   <trkpt lat="47.867535" lon="6.730281">
    <ele>759</ele>
    <time>2021-01-18T16:00:03+01:00</time>
   </trkpt>
   <trkpt lat="47.86693" lon="6.730495">
    <ele>757</ele>
    <time>2021-01-18T16:00:08+01:00</time>
   </trkpt>
   <trkpt lat="47.866182" lon="6.730581">
    <ele>758</ele>
    <time>2021-01-18T16:00:13+01:00</time>
   </trkpt>
   <trkpt lat="47.866153" lon="6.731096">
    <ele>754</ele>
    <time>2021-01-18T16:00:18+01:00</time>
   </trkpt>
   <trkpt lat="47.865577" lon="6.732426">
    <ele>756</ele>
    <time>2021-01-18T16:00:23+01:00</time>
   </trkpt>
   <trkpt lat="47.865404" lon="6.732813">
    <ele>756</ele>
    <time>2021-01-18T16:00:28+01:00</time>
   </trkpt>
   <trkpt lat="47.865203" lon="6.734529">
    <ele>752</ele>
    <time>2021-01-18T16:00:33+01:00</time>
   </trkpt>
   <trkpt lat="47.865059" lon="6.735345">
    <ele>755</ele>
    <time>2021-01-18T16:00:38+01:00</time>
   </trkpt>
   <trkpt lat="47.865577" lon="6.736503">
    <ele>750</ele>
    <time>2021-01-18T16:00:43+01:00</time>
   </trkpt>
   <trkpt lat="47.865634" lon="6.737061">
    <ele>748</ele>
    <time>2021-01-18T16:00:48+01:00</time>
   </trkpt>
   <trkpt lat="47.865347" lon="6.737276">
    <ele>748</ele>
    <time>2021-01-18T16:00:53+01:00</time>
   </trkpt>
   <trkpt lat="47.864454" lon="6.73689">
    <ele>739</ele>
    <time>2021-01-18T16:00:58+01:00</time>
   </trkpt>
   <trkpt lat="47.863475" lon="6.736933">
    <ele>736</ele>
    <time>2021-01-18T16:01:03+01:00</time>
   </trkpt>
   <trkpt lat="47.862986" lon="6.737104">
    <ele>727</ele>
    <time>2021-01-18T16:01:08+01:00</time>
   </trkpt>
   <trkpt lat="47.862496" lon="6.737619">
    <ele>721</ele>
    <time>2021-01-18T16:01:13+01:00</time>
   </trkpt>
   <trkpt lat="47.861776" lon="6.737791">
    <ele>715</ele>
    <time>2021-01-18T16:01:18+01:00</time>
   </trkpt>
   <trkpt lat="47.861258" lon="6.737104">
    <ele>702</ele>
    <time>2021-01-18T16:01:23+01:00</time>
   </trkpt>
   <trkpt lat="47.860941" lon="6.737233">
    <ele>701</ele>
    <time>2021-01-18T16:01:28+01:00</time>
   </trkpt>
   <trkpt lat="47.861085" lon="6.737705">
    <ele>708</ele>
    <time>2021-01-18T16:01:33+01:00</time>
   </trkpt>
   <trkpt lat="47.861316" lon="6.738177">
    <ele>706</ele>
    <time>2021-01-18T16:01:38+01:00</time>
   </trkpt>
   <trkpt lat="47.861316" lon="6.738778">
    <ele>704</ele>
    <time>2021-01-18T16:01:43+01:00</time>
   </trkpt>
   <trkpt lat="47.861316" lon="6.739207">
    <ele>701</ele>
    <time>2021-01-18T16:01:48+01:00</time>
   </trkpt>
   <trkpt lat="47.861201" lon="6.739808">
    <ele>695</ele>
    <time>2021-01-18T16:01:53+01:00</time>
   </trkpt>
   <trkpt lat="47.861776" lon="6.740366">
    <ele>696</ele>
    <time>2021-01-18T16:01:58+01:00</time>
   </trkpt>
   <trkpt lat="47.861892" lon="6.740967">
    <ele>686</ele>
    <time>2021-01-18T16:02:03+01:00</time>
   </trkpt>
   <trkpt lat="47.861632" lon="6.741997">
    <ele>680</ele>
    <time>2021-01-18T16:02:08+01:00</time>
   </trkpt>
   <trkpt lat="47.86146" lon="6.74264">
    <ele>681</ele>
    <time>2021-01-18T16:02:13+01:00</time>
   </trkpt>
   <trkpt lat="47.861258" lon="6.743155">
    <ele>687</ele>
    <time>2021-01-18T16:02:18+01:00</time>
   </trkpt>
   <trkpt lat="47.861258" lon="6.745001">
    <ele>683</ele>
    <time>2021-01-18T16:02:23+01:00</time>
   </trkpt>
   <trkpt lat="47.86097" lon="6.746073">
    <ele>686</ele>
    <time>2021-01-18T16:02:28+01:00</time>
   </trkpt>
   <trkpt lat="47.860769" lon="6.746503">
    <ele>687</ele>
    <time>2021-01-18T16:02:33+01:00</time>
   </trkpt>
   <trkpt lat="47.859905" lon="6.747103">
    <ele>683</ele>
    <time>2021-01-18T16:02:38+01:00</time>
   </trkpt>
   <trkpt lat="47.859732" lon="6.747533">
    <ele>682</ele>
    <time>2021-01-18T16:02:43+01:00</time>
   </trkpt>
   <trkpt lat="47.859818" lon="6.748605">
    <ele>687</ele>
    <time>2021-01-18T16:02:48+01:00</time>
   </trkpt>
   <trkpt lat="47.859761" lon="6.749593">
    <ele>694</ele>
    <time>2021-01-18T16:02:53+01:00</time>
   </trkpt>
   <trkpt lat="47.859703" lon="6.750108">
    <ele>701</ele>
    <time>2021-01-18T16:02:58+01:00</time>
   </trkpt>
   <trkpt lat="47.859502" lon="6.750665">
    <ele>711</ele>
    <time>2021-01-18T16:03:03+01:00</time>
   </trkpt>
   <trkpt lat="47.8593" lon="6.751781">
    <ele>719</ele>
    <time>2021-01-18T16:03:08+01:00</time>
   </trkpt>
   <trkpt lat="47.859588" lon="6.752511">
    <ele>716</ele>
    <time>2021-01-18T16:03:13+01:00</time>
   </trkpt>
   <trkpt lat="47.860164" lon="6.752854">
    <ele>699</ele>
    <time>2021-01-18T16:03:18+01:00</time>
   </trkpt>
   <trkpt lat="47.860308" lon="6.753369">
    <ele>703</ele>
    <time>2021-01-18T16:03:23+01:00</time>
   </trkpt>
   <trkpt lat="47.860596" lon="6.753884">
    <ele>697</ele>
    <time>2021-01-18T16:03:28+01:00</time>
   </trkpt>
   <trkpt lat="47.860826" lon="6.754442">
    <ele>696</ele>
    <time>2021-01-18T16:03:33+01:00</time>
   </trkpt>
   <trkpt lat="47.86097" lon="6.754699">
    <ele>694</ele>
    <time>2021-01-18T16:03:38+01:00</time>
   </trkpt>
   <trkpt lat="47.861258" lon="6.754914">
    <ele>684</ele>
    <time>2021-01-18T16:03:43+01:00</time>
   </trkpt>
   <trkpt lat="47.861402" lon="6.755901">
    <ele>695</ele>
    <time>2021-01-18T16:03:48+01:00</time>
   </trkpt>
   <trkpt lat="47.861575" lon="6.756716">
    <ele>697</ele>
    <time>2021-01-18T16:03:53+01:00</time>
   </trkpt>
   <trkpt lat="47.861834" lon="6.757017">
    <ele>697</ele>
    <time>2021-01-18T16:03:58+01:00</time>
   </trkpt>
   <trkpt lat="47.862093" lon="6.757618">
    <ele>697</ele>
    <time>2021-01-18T16:04:03+01:00</time>
   </trkpt>
   <trkpt lat="47.862064" lon="6.758219">
    <ele>695</ele>
    <time>2021-01-18T16:04:08+01:00</time>
   </trkpt>
   <trkpt lat="47.862007" lon="6.758605">
    <ele>696</ele>
    <time>2021-01-18T16:04:13+01:00</time>
   </trkpt>
   <trkpt lat="47.862122" lon="6.759592">
    <ele>688</ele>
    <time>2021-01-18T16:04:18+01:00</time>
   </trkpt>
   <trkpt lat="47.862237" lon="6.76015">
    <ele>685</ele>
    <time>2021-01-18T16:04:23+01:00</time>
   </trkpt>
   <trkpt lat="47.862899" lon="6.760665">
    <ele>679</ele>
    <time>2021-01-18T16:04:28+01:00</time>
   </trkpt>
   <trkpt lat="47.863043" lon="6.761051">
    <ele>680</ele>
    <time>2021-01-18T16:04:33+01:00</time>
   </trkpt>
   <trkpt lat="47.863043" lon="6.761866">
    <ele>683</ele>
    <time>2021-01-18T16:04:38+01:00</time>
   </trkpt>
   <trkpt lat="47.863158" lon="6.762939">
    <ele>680</ele>
    <time>2021-01-18T16:04:43+01:00</time>
   </trkpt>
   <trkpt lat="47.863043" lon="6.763368">
    <ele>680</ele>
    <time>2021-01-18T16:04:48+01:00</time>
   </trkpt>
   <trkpt lat="47.862928" lon="6.764398">
    <ele>678</ele>
    <time>2021-01-18T16:04:53+01:00</time>
   </trkpt>
   <trkpt lat="47.862928" lon="6.764956">
    <ele>674</ele>
    <time>2021-01-18T16:04:58+01:00</time>
   </trkpt>
   <trkpt lat="47.863043" lon="6.765986">
    <ele>660</ele>
    <time>2021-01-18T16:05:03+01:00</time>
   </trkpt>
   <trkpt lat="47.863158" lon="6.766501">
    <ele>654</ele>
    <time>2021-01-18T16:05:08+01:00</time>
   </trkpt>
   <trkpt lat="47.862755" lon="6.767703">
    <ele>652</ele>
    <time>2021-01-18T16:05:13+01:00</time>
   </trkpt>
   <trkpt lat="47.862611" lon="6.768432">
    <ele>648</ele>
    <time>2021-01-18T16:05:18+01:00</time>
   </trkpt>
   <trkpt lat="47.862064" lon="6.769033">
    <ele>653</ele>
    <time>2021-01-18T16:05:23+01:00</time>
   </trkpt>
   <trkpt lat="47.861431" lon="6.769248">
    <ele>658</ele>
    <time>2021-01-18T16:05:28+01:00</time>
   </trkpt>
   <trkpt lat="47.860855" lon="6.76972">
    <ele>657</ele>
    <time>2021-01-18T16:05:33+01:00</time>
   </trkpt>
   <trkpt lat="47.860711" lon="6.77002">
    <ele>656</ele>
    <time>2021-01-18T16:05:38+01:00</time>
   </trkpt>
   <trkpt lat="47.860366" lon="6.770449">
    <ele>659</ele>
    <time>2021-01-18T16:05:43+01:00</time>
   </trkpt>
   <trkpt lat="47.860308" lon="6.771093">
    <ele>663</ele>
    <time>2021-01-18T16:05:48+01:00</time>
   </trkpt>
   <trkpt lat="47.860481" lon="6.771694">
    <ele>667</ele>
    <time>2021-01-18T16:05:53+01:00</time>
   </trkpt>
   <trkpt lat="47.860423" lon="6.772466">
    <ele>677</ele>
    <time>2021-01-18T16:05:58+01:00</time>
   </trkpt>
   <trkpt lat="47.860164" lon="6.773411">
    <ele>694</ele>
    <time>2021-01-18T16:06:03+01:00</time>
   </trkpt>
   <trkpt lat="47.860308" lon="6.774569">
    <ele>698</ele>
    <time>2021-01-18T16:06:08+01:00</time>
   </trkpt>
   <trkpt lat="47.860049" lon="6.775642">
    <ele>711</ele>
    <time>2021-01-18T16:06:13+01:00</time>
   </trkpt>
   <trkpt lat="47.860135" lon="6.776415">
    <ele>714</ele>
    <time>2021-01-18T16:06:18+01:00</time>
   </trkpt>
   <trkpt lat="47.859818" lon="6.777316">
    <ele>722</ele>
    <time>2021-01-18T16:06:23+01:00</time>
   </trkpt>
   <trkpt lat="47.859358" lon="6.777659">
    <ele>730</ele>
    <time>2021-01-18T16:06:28+01:00</time>
   </trkpt>
   <trkpt lat="47.858955" lon="6.778475">
    <ele>732</ele>
    <time>2021-01-18T16:06:33+01:00</time>
   </trkpt>
   <trkpt lat="47.858667" lon="6.778904">
    <ele>736</ele>
    <time>2021-01-18T16:06:38+01:00</time>
   </trkpt>
   <trkpt lat="47.858264" lon="6.779204">
    <ele>741</ele>
    <time>2021-01-18T16:06:43+01:00</time>
   </trkpt>
   <trkpt lat="47.858148" lon="6.78002">
    <ele>741</ele>
    <time>2021-01-18T16:06:48+01:00</time>
   </trkpt>
   <trkpt lat="47.858062" lon="6.781007">
    <ele>745</ele>
    <time>2021-01-18T16:06:53+01:00</time>
   </trkpt>
   <trkpt lat="47.857659" lon="6.781736">
    <ele>750</ele>
    <time>2021-01-18T16:06:58+01:00</time>
   </trkpt>
   <trkpt lat="47.856997" lon="6.782165">
    <ele>757</ele>
    <time>2021-01-18T16:07:03+01:00</time>
   </trkpt>
   <trkpt lat="47.856593" lon="6.782809">
    <ele>763</ele>
    <time>2021-01-18T16:07:08+01:00</time>
   </trkpt>
   <trkpt lat="47.856219" lon="6.783581">
    <ele>762</ele>
    <time>2021-01-18T16:07:13+01:00</time>
   </trkpt>
   <trkpt lat="47.855989" lon="6.784054">
    <ele>763</ele>
    <time>2021-01-18T16:07:18+01:00</time>
   </trkpt>
   <trkpt lat="47.856046" lon="6.785684">
    <ele>773</ele>
    <time>2021-01-18T16:07:23+01:00</time>
   </trkpt>
   <trkpt lat="47.856075" lon="6.786886">
    <ele>779</ele>
    <time>2021-01-18T16:07:28+01:00</time>
   </trkpt>
   <trkpt lat="47.856046" lon="6.787229">
    <ele>779</ele>
    <time>2021-01-18T16:07:33+01:00</time>
   </trkpt>
   <trkpt lat="47.856305" lon="6.787616">
    <ele>771</ele>
    <time>2021-01-18T16:07:38+01:00</time>
   </trkpt>
   <trkpt lat="47.856651" lon="6.787744">
    <ele>760</ele>
    <time>2021-01-18T16:07:43+01:00</time>
   </trkpt>
   <trkpt lat="47.856881" lon="6.787358">
    <ele>752</ele>
    <time>2021-01-18T16:07:48+01:00</time>
   </trkpt>
   <trkpt lat="47.856939" lon="6.786199">
    <ele>745</ele>
    <time>2021-01-18T16:07:53+01:00</time>
   </trkpt>
   <trkpt lat="47.857313" lon="6.785556">
    <ele>730</ele>
    <time>2021-01-18T16:07:58+01:00</time>
   </trkpt>
   <trkpt lat="47.857428" lon="6.785212">
    <ele>725</ele>
    <time>2021-01-18T16:08:03+01:00</time>
   </trkpt>
   <trkpt lat="47.857342" lon="6.784569">
    <ele>723</ele>
    <time>2021-01-18T16:08:08+01:00</time>
   </trkpt>
   <trkpt lat="47.857227" lon="6.784182">
    <ele>720</ele>
    <time>2021-01-18T16:08:13+01:00</time>
   </trkpt>
   <trkpt lat="47.857544" lon="6.78371">
    <ele>714</ele>
    <time>2021-01-18T16:08:18+01:00</time>
   </trkpt>
   <trkpt lat="47.857889" lon="6.783453">
    <ele>712</ele>
    <time>2021-01-18T16:08:23+01:00</time>
   </trkpt>
   <trkpt lat="47.858724" lon="6.783581">
    <ele>701</ele>
    <time>2021-01-18T16:08:28+01:00</time>
   </trkpt>
   <trkpt lat="47.859559" lon="6.782981">
    <ele>687</ele>
    <time>2021-01-18T16:08:33+01:00</time>
   </trkpt>
   <trkpt lat="47.859761" lon="6.782723">
    <ele>682</ele>
    <time>2021-01-18T16:08:38+01:00</time>
   </trkpt>
   <trkpt lat="47.859991" lon="6.78341">
    <ele>674</ele>
    <time>2021-01-18T16:08:43+01:00</time>
   </trkpt>
   <trkpt lat="47.859732" lon="6.784096">
    <ele>675</ele>
    <time>2021-01-18T16:08:48+01:00</time>
   </trkpt>
   <trkpt lat="47.859617" lon="6.784483">
    <ele>673</ele>
    <time>2021-01-18T16:08:53+01:00</time>
   </trkpt>
   <trkpt lat="47.859185" lon="6.784483">
    <ele>679</ele>
    <time>2021-01-18T16:08:58+01:00</time>
   </trkpt>
   <trkpt lat="47.859185" lon="6.78474">
    <ele>677</ele>
    <time>2021-01-18T16:09:03+01:00</time>
   </trkpt>
   <trkpt lat="47.859387" lon="6.785041">
    <ele>676</ele>
    <time>2021-01-18T16:09:08+01:00</time>
   </trkpt>
   <trkpt lat="47.859444" lon="6.785727">
    <ele>678</ele>
    <time>2021-01-18T16:09:13+01:00</time>
   </trkpt>
   <trkpt lat="47.859934" lon="6.785942">
    <ele>670</ele>
    <time>2021-01-18T16:09:18+01:00</time>
   </trkpt>
   <trkpt lat="47.860193" lon="6.786414">
    <ele>671</ele>
    <time>2021-01-18T16:09:23+01:00</time>
   </trkpt>
   <trkpt lat="47.860567" lon="6.786156">
    <ele>663</ele>
    <time>2021-01-18T16:09:28+01:00</time>
   </trkpt>
   <trkpt lat="47.860999" lon="6.786328">
    <ele>661</ele>
    <time>2021-01-18T16:09:33+01:00</time>
   </trkpt>
   <trkpt lat="47.861575" lon="6.786156">
    <ele>654</ele>
    <time>2021-01-18T16:09:38+01:00</time>
   </trkpt>
   <trkpt lat="47.861978" lon="6.785255">
    <ele>646</ele>
    <time>2021-01-18T16:09:43+01:00</time>
   </trkpt>
   <trkpt lat="47.862237" lon="6.784569">
    <ele>637</ele>
    <time>2021-01-18T16:09:48+01:00</time>
   </trkpt>
   <trkpt lat="47.861949" lon="6.784354">
    <ele>638</ele>
    <time>2021-01-18T16:09:53+01:00</time>
   </trkpt>
   <trkpt lat="47.861517" lon="6.784268">
    <ele>639</ele>
    <time>2021-01-18T16:09:58+01:00</time>
   </trkpt>
   <trkpt lat="47.861834" lon="6.782895">
    <ele>633</ele>
    <time>2021-01-18T16:10:03+01:00</time>
   </trkpt>
   <trkpt lat="47.862352" lon="6.781693">
    <ele>629</ele>
    <time>2021-01-18T16:10:08+01:00</time>
   </trkpt>
   <trkpt lat="47.86241" lon="6.78062">
    <ele>631</ele>
    <time>2021-01-18T16:10:13+01:00</time>
   </trkpt>
   <trkpt lat="47.862266" lon="6.779376">
    <ele>636</ele>
    <time>2021-01-18T16:10:18+01:00</time>
   </trkpt>
   <trkpt lat="47.862007" lon="6.77929">
    <ele>638</ele>
    <time>2021-01-18T16:10:23+01:00</time>
   </trkpt>
   <trkpt lat="47.861863" lon="6.77929">
    <ele>640</ele>
    <time>2021-01-18T16:10:28+01:00</time>
   </trkpt>
   <trkpt lat="47.861834" lon="6.778603">
    <ele>642</ele>
    <time>2021-01-18T16:10:33+01:00</time>
   </trkpt>
   <trkpt lat="47.861719" lon="6.776715">
    <ele>651</ele>
    <time>2021-01-18T16:10:38+01:00</time>
   </trkpt>
   <trkpt lat="47.86169" lon="6.776329">
    <ele>651</ele>
    <time>2021-01-18T16:10:43+01:00</time>
   </trkpt>
   <trkpt lat="47.861575" lon="6.775556">
    <ele>651</ele>
    <time>2021-01-18T16:10:48+01:00</time>
   </trkpt>
   <trkpt lat="47.861402" lon="6.775084">
    <ele>655</ele>
    <time>2021-01-18T16:10:53+01:00</time>
   </trkpt>
   <trkpt lat="47.861373" lon="6.774097">
    <ele>650</ele>
    <time>2021-01-18T16:10:58+01:00</time>
   </trkpt>
   <trkpt lat="47.861143" lon="6.773024">
    <ele>653</ele>
    <time>2021-01-18T16:11:03+01:00</time>
   </trkpt>
   <trkpt lat="47.861143" lon="6.772552">
    <ele>653</ele>
    <time>2021-01-18T16:11:08+01:00</time>
   </trkpt>
   <trkpt lat="47.860797" lon="6.77178">
    <ele>659</ele>
    <time>2021-01-18T16:11:13+01:00</time>
   </trkpt>
   <trkpt lat="47.860509" lon="6.770879">
    <ele>657</ele>
    <time>2021-01-18T16:11:18+01:00</time>
   </trkpt>
   <trkpt lat="47.860423" lon="6.770578">
    <ele>658</ele>
    <time>2021-01-18T16:11:23+01:00</time>
   </trkpt>
   <trkpt lat="47.860682" lon="6.770149">
    <ele>655</ele>
    <time>2021-01-18T16:11:28+01:00</time>
   </trkpt>
   <trkpt lat="47.860913" lon="6.769677">
    <ele>657</ele>
    <time>2021-01-18T16:11:33+01:00</time>
   </trkpt>
   <trkpt lat="47.861345" lon="6.769377">
    <ele>656</ele>
    <time>2021-01-18T16:11:38+01:00</time>
   </trkpt>
   <trkpt lat="47.862064" lon="6.769119">
    <ele>651</ele>
    <time>2021-01-18T16:11:43+01:00</time>
   </trkpt>
   <trkpt lat="47.862525" lon="6.768647">
    <ele>647</ele>
    <time>2021-01-18T16:11:48+01:00</time>
   </trkpt>
   <trkpt lat="47.86313" lon="6.766887">
    <ele>652</ele>
    <time>2021-01-18T16:11:53+01:00</time>
   </trkpt>
   <trkpt lat="47.863216" lon="6.766458">
    <ele>653</ele>
    <time>2021-01-18T16:11:58+01:00</time>
   </trkpt>
   <trkpt lat="47.863677" lon="6.765643">
    <ele>645</ele>
    <time>2021-01-18T16:12:03+01:00</time>
   </trkpt>
   <trkpt lat="47.863907" lon="6.76487">
    <ele>644</ele>
    <time>2021-01-18T16:12:08+01:00</time>
   </trkpt>
   <trkpt lat="47.864253" lon="6.764398">
    <ele>638</ele>
    <time>2021-01-18T16:12:13+01:00</time>
   </trkpt>
   <trkpt lat="47.864569" lon="6.76354">
    <ele>637</ele>
    <time>2021-01-18T16:12:18+01:00</time>
   </trkpt>
   <trkpt lat="47.86526" lon="6.76281">
    <ele>629</ele>
    <time>2021-01-18T16:12:23+01:00</time>
   </trkpt>
   <trkpt lat="47.865548" lon="6.762338">
    <ele>623</ele>
    <time>2021-01-18T16:12:28+01:00</time>
   </trkpt>
   <trkpt lat="47.865606" lon="6.761308">
    <ele>617</ele>
    <time>2021-01-18T16:12:33+01:00</time>
   </trkpt>
   <trkpt lat="47.865548" lon="6.760879">
    <ele>616</ele>
    <time>2021-01-18T16:12:38+01:00</time>
   </trkpt>
   <trkpt lat="47.865375" lon="6.760193">
    <ele>613</ele>
    <time>2021-01-18T16:12:43+01:00</time>
   </trkpt>
   <trkpt lat="47.86503" lon="6.759806">
    <ele>615</ele>
    <time>2021-01-18T16:12:48+01:00</time>
   </trkpt>
   <trkpt lat="47.864512" lon="6.759248">
    <ele>618</ele>
    <time>2021-01-18T16:12:53+01:00</time>
   </trkpt>
   <trkpt lat="47.864253" lon="6.758948">
    <ele>618</ele>
    <time>2021-01-18T16:12:58+01:00</time>
   </trkpt>
   <trkpt lat="47.863936" lon="6.758905">
    <ele>624</ele>
    <time>2021-01-18T16:13:03+01:00</time>
   </trkpt>
   <trkpt lat="47.863763" lon="6.758648">
    <ele>626</ele>
    <time>2021-01-18T16:13:08+01:00</time>
   </trkpt>
   <trkpt lat="47.864022" lon="6.758304">
    <ele>618</ele>
    <time>2021-01-18T16:13:13+01:00</time>
   </trkpt>
   <trkpt lat="47.864109" lon="6.757103">
    <ele>609</ele>
    <time>2021-01-18T16:13:18+01:00</time>
   </trkpt>
   <trkpt lat="47.863878" lon="6.756545">
    <ele>608</ele>
    <time>2021-01-18T16:13:23+01:00</time>
   </trkpt>
   <trkpt lat="47.863648" lon="6.755472">
    <ele>608</ele>
    <time>2021-01-18T16:13:28+01:00</time>
   </trkpt>
   <trkpt lat="47.863504" lon="6.755172">
    <ele>605</ele>
    <time>2021-01-18T16:13:33+01:00</time>
   </trkpt>
   <trkpt lat="47.863418" lon="6.754828">
    <ele>600</ele>
    <time>2021-01-18T16:13:38+01:00</time>
   </trkpt>
   <trkpt lat="47.863101" lon="6.754528">
    <ele>596</ele>
    <time>2021-01-18T16:13:43+01:00</time>
   </trkpt>
   <trkpt lat="47.862928" lon="6.754142">
    <ele>594</ele>
    <time>2021-01-18T16:13:48+01:00</time>
   </trkpt>
   <trkpt lat="47.862842" lon="6.753798">
    <ele>591</ele>
    <time>2021-01-18T16:13:53+01:00</time>
   </trkpt>
   <trkpt lat="47.862611" lon="6.753498">
    <ele>592</ele>
    <time>2021-01-18T16:13:58+01:00</time>
   </trkpt>
   <trkpt lat="47.862496" lon="6.753369">
    <ele>592</ele>
    <time>2021-01-18T16:14:03+01:00</time>
   </trkpt>
   <trkpt lat="47.862439" lon="6.752296">
    <ele>581</ele>
    <time>2021-01-18T16:14:08+01:00</time>
   </trkpt>
   <trkpt lat="47.862611" lon="6.75088">
    <ele>579</ele>
    <time>2021-01-18T16:14:13+01:00</time>
   </trkpt>
   <trkpt lat="47.862842" lon="6.749721">
    <ele>571</ele>
    <time>2021-01-18T16:14:18+01:00</time>
   </trkpt>
   <trkpt lat="47.863475" lon="6.748691">
    <ele>563</ele>
    <time>2021-01-18T16:14:23+01:00</time>
   </trkpt>
   <trkpt lat="47.863648" lon="6.748691">
    <ele>560</ele>
    <time>2021-01-18T16:14:28+01:00</time>
   </trkpt>
   <trkpt lat="47.863993" lon="6.749335">
    <ele>555</ele>
    <time>2021-01-18T16:14:33+01:00</time>
   </trkpt>
   <trkpt lat="47.864569" lon="6.749893">
    <ele>551</ele>
    <time>2021-01-18T16:14:38+01:00</time>
   </trkpt>
   <trkpt lat="47.865721" lon="6.749936">
    <ele>548</ele>
    <time>2021-01-18T16:14:43+01:00</time>
   </trkpt>
   <trkpt lat="47.8667" lon="6.750193">
    <ele>549</ele>
    <time>2021-01-18T16:14:48+01:00</time>
   </trkpt>
   <trkpt lat="47.867045" lon="6.751052">
    <ele>546</ele>
    <time>2021-01-18T16:14:53+01:00</time>
   </trkpt>
   <trkpt lat="47.867563" lon="6.752167">
    <ele>541</ele>
    <time>2021-01-18T16:14:58+01:00</time>
   </trkpt>
   <trkpt lat="47.867765" lon="6.753069">
    <ele>538</ele>
    <time>2021-01-18T16:15:03+01:00</time>
   </trkpt>
   <trkpt lat="47.868024" lon="6.753584">
    <ele>535</ele>
    <time>2021-01-18T16:15:08+01:00</time>
   </trkpt>
   <trkpt lat="47.868283" lon="6.754056">
    <ele>536</ele>
    <time>2021-01-18T16:15:13+01:00</time>
   </trkpt>
   <trkpt lat="47.868974" lon="6.754184">
    <ele>533</ele>
    <time>2021-01-18T16:15:18+01:00</time>
   </trkpt>
   <trkpt lat="47.86932" lon="6.754614">
    <ele>533</ele>
    <time>2021-01-18T16:15:23+01:00</time>
   </trkpt>
   <trkpt lat="47.870932" lon="6.754528">
    <ele>524</ele>
    <time>2021-01-18T16:15:28+01:00</time>
   </trkpt>
   <trkpt lat="47.871479" lon="6.754785">
    <ele>520</ele>
    <time>2021-01-18T16:15:33+01:00</time>
   </trkpt>
   <trkpt lat="47.872141" lon="6.755772">
    <ele>519</ele>
    <time>2021-01-18T16:15:38+01:00</time>
   </trkpt>
   <trkpt lat="47.87286" lon="6.755815">
    <ele>512</ele>
    <time>2021-01-18T16:15:43+01:00</time>
   </trkpt>
   <trkpt lat="47.873551" lon="6.756545">
    <ele>508</ele>
    <time>2021-01-18T16:15:48+01:00</time>
   </trkpt>
   <trkpt lat="47.874069" lon="6.756802">
    <ele>505</ele>
    <time>2021-01-18T16:15:53+01:00</time>
   </trkpt>
   <trkpt lat="47.87453" lon="6.756931">
    <ele>504</ele>
    <time>2021-01-18T16:15:58+01:00</time>
   </trkpt>
   <trkpt lat="47.874933" lon="6.757146">
    <ele>501</ele>
    <time>2021-01-18T16:16:03+01:00</time>
   </trkpt>
   <trkpt lat="47.875221" lon="6.757146">
    <ele>500</ele>
    <time>2021-01-18T16:16:08+01:00</time>
   </trkpt>
   <trkpt lat="47.875566" lon="6.758047">
    <ele>498</ele>
    <time>2021-01-18T16:16:13+01:00</time>
   </trkpt>
   <trkpt lat="47.875739" lon="6.758819">
    <ele>496</ele>
    <time>2021-01-18T16:16:18+01:00</time>
   </trkpt>
   <trkpt lat="47.875365" lon="6.759935">
    <ele>496</ele>
    <time>2021-01-18T16:16:23+01:00</time>
   </trkpt>
   <trkpt lat="47.875221" lon="6.760665">
    <ele>497</ele>
    <time>2021-01-18T16:16:28+01:00</time>
   </trkpt>
   <trkpt lat="47.875163" lon="6.762038">
    <ele>496</ele>
    <time>2021-01-18T16:16:33+01:00</time>
   </trkpt>
  </trkseg>
 </trk></gpx>